Martins Creek, Pennsylvania
Current Conditions -  °F | °C
As of 2:51 PM on Thursday 30 Oct 2014 (Local Time) from KABE Reporting Station
Broken Clouds Broken Clouds  
Wind Chill: 12°   Ceiling: 5000
Heat Index: 12°   Visibility: 10mi
Dew Point:   Wind: 10mph
Humidity: 51%   Direction: 310°NW
Pressure: 30"   Gusts: NA
Location:  40.78°N, 75.19°W
Report Text: KABE 301851Z 31009KT 10SM BKN050 12/02 A3000 RMK AO2 SLP159 T01220022
Loading
Personal Weather Stations






























Interactive Weather Map
Tropical Storm Tracking
New forecast layout! Learn more

10-Day Weather Forecast

Advertisements
Track Severe Weather on mobile